This is the latest recevied weather packets stored in our database for station/object N0AOL-13. If no packets are shown the sender has not sent any weather packets the latest 10 day(s).
| Time | Temp. | Humidity | Pressure | Rain* | Wind** | Luminosity | Snow |
|---|---|---|---|---|---|---|---|
| 1777747523 | 23.33° C | 21% | 1014.6 hPa | 0 mm | - | 1007 W/m² | - |
| 1777746623 | 22.78° C | 22% | 1014.8 hPa | 0 mm | - | 979 W/m² | - |
| 1777743903 | 22.78° C | 22% | 1015.5 hPa | 0 mm | - | 863 W/m² | - |
| 1777743004 | 22.78° C | 22% | 1015.6 hPa | 0 mm | - | 821 W/m² | - |
| 1777741210 | 22.22° C | 18% | 1015.6 hPa | 0 mm | - | 772 W/m² | - |
| 1777735805 | 18.89° C | 29% | 1016.3 hPa | 0 mm | - | 464 W/m² | - |
| 1777719626 | 2.22° C | 63% | 1018.6 hPa | 0 mm | - | 0 W/m² | - |
| 1777713326 | 0° C | 74% | 1020.1 hPa | 0 mm | - | 0 W/m² | - |
| 1777709731 | -1.11° C | 78% | 1020.6 hPa | 0 mm | - | 0 W/m² | - |
| 1777708815 | -1.11° C | 77% | 1020.8 hPa | 0 mm | - | 0 W/m² | - |
| 1777701608 | 0.56° C | 71% | 1021.5 hPa | 0 mm | - | 0 W/m² | - |
| 1777700714 | 1.11° C | 70% | 1021.4 hPa | 0 mm | - | 0 W/m² | - |
| 1777697109 | 2.78° C | 65% | 1021.5 hPa | 0 mm | - | 0 W/m² | - |
| 1777695307 | 3.89° C | 60% | 1021.5 hPa | 0 mm | - | 0 W/m² | - |
| 1777691708 | 5.56° C | 53% | 1021 hPa | 0 mm | - | 0 W/m² | - |
| 1777687206 | 10° C | 40% | 1020.1 hPa | 0 mm | - | 0 W/m² | - |
| 1777674627 | 15.56° C | 31% | 1018.5 hPa | 0 mm | - | 577 W/m² | - |
| 1777673725 | 16.11° C | 30% | 1018.6 hPa | 0 mm | - | 610 W/m² | - |
| 1777664709 | 16.67° C | 33% | 1019.1 hPa | 0 mm | - | 875 W/m² | - |
| 1777662910 | 15.56° C | 34% | 1018.8 hPa | 0 mm | - | 325 W/m² | - |
| 1777656612 | 13.89° C | 34% | 1019.5 hPa | 0 mm | - | 812 W/m² | - |
| 1777653910 | 13.33° C | 38% | 1019.5 hPa | 0 mm | - | 761 W/m² | - |
| 1777652113 | 11.67° C | 41% | 1019.4 hPa | 0 mm | - | 722 W/m² | - |
| 1777651216 | 11.67° C | 43% | 1019.3 hPa | 0 mm | - | 680 W/m² | - |
| 1777645816 | 10° C | 43% | 1019.1 hPa | 0 mm | - | 418 W/m² | - |
* Rain latest hour (hover to see other rain measurements)
** Current wind speed in m/s (hover to see current wind gust speed)